Fargo, ND

12:50 AM CDT on September 17, 2014 (GMT -0500)
North Fargo | Change Station
CLOSE
Current Station
Personal Weather Station
Location: Fargo, ND
Elevation: 899 ft
Nearby Weather Stations

Elev 899 ft 46.91 °N, 96.79 °W | Updated 26 seconds ago

Clear
Clear
0.0 °F
Feels Like 0.0 °F
N
0.0
Wind Variable Wind from North
Gusts 0.0 mph

Today
High -- | Low -- °F
--% Chance of Precip.
Yesterday
High -- | Low -- °F
Precip. -- in
7:07 AM 7:34 PM
Last Quarter, 39% visible
Pressure 29.91 in
Visibility 10.0 miles
Clouds Clear
Dew Point Not available.
Humidity Not available.
Rainfall 0.00 in
Snow Depth Not available.
UV 0 out of 12
Pollen 3.70 out of 12
Air Quality Not available.
Flu Activity Not available.
METAR KFAR 170453Z 13008KT 10SM CLR 14/08 A2991 RMK AO2 SLP129 T01390078

More Conditions Fewer Conditions

Pressure 29.91 in
Visibility 10.0 miles
Clouds Clear
Dew Point Not available.
Humidity Not available.
Rainfall 0.00 in
Snow Depth Not available.
UV 0 out of 12
Pollen 3.70 out of 12
Air Quality Not available.
Flu Activity Not available.
METAR KFAR 170453Z 13008KT 10SM CLR 14/08 A2991 RMK AO2 SLP129 T01390078

More Conditions Fewer Conditions

10-Day Weather Forecast

Almanac

Astronomy

Sep. 17, 2014 Rise Set
Actual Time 7:07 AM CDT 7:34 PM CDT
Civil Twilight 6:37 AM CDT 8:05 PM CDT
Nautical Twilight 6:00 AM CDT 8:41 PM CDT
Astronomical Twilight 5:23 AM CDT 9:18 PM CDT
Moon 12:52 AM CDT 4:00 PM CDT
Length of Visible Light 13h 28m
Length of Day
12h 27m
Tomorrow will be 3m 20s shorter.
Last Quarter, 39% of the Moon is Illuminated
Today
Last Quarter
Sep 24
New
Oct 1
First Quarter
Oct 8
Full
Oct 15
Last Quarter

Today's Extremes

State Highs State Lows

Community

WunderPhotos

Upload Photos

1,753,968 photos uploaded!

Nearby

Snow Depth

Station Depth Elevation
No new snow has been reported.

Earthquake Activity

City Distance Mag. Time & Date
No recent earthquake activity has been reported nearby.
Minimum magnitude displayed is 2.5.

Coastal Water Temperatures

Place Temperature
No Stations Reporting

Nearby Weather Stations